sensor_id;sensor_type;location;lat;lon;timestamp;P1;durP1;ratioP1;P2;durP2;ratioP2
14599;SDS011;7386;45.586;12.854;2023-04-01T00:00:40;3.93;;;3.53;;
14599;SDS011;7386;45.586;12.854;2023-04-01T00:03:08;3.57;;;3.03;;
14599;SDS011;7386;45.586;12.854;2023-04-01T00:05:38;4.00;;;3.47;;
14599;SDS011;7386;45.586;12.854;2023-04-01T00:08:06;6.70;;;3.50;;
14599;SDS011;7386;45.586;12.854;2023-04-01T00:10:36;3.80;;;3.30;;
14599;SDS011;7386;45.586;12.854;2023-04-01T00:13:05;5.27;;;3.53;;
14599;SDS011;7386;45.586;12.854;2023-04-01T00:15:35;5.03;;;3.80;;
14599;SDS011;7386;45.586;12.854;2023-04-01T00:18:04;4.23;;;3.63;;
14599;SDS011;7386;45.586;12.854;2023-04-01T00:20:32;6.23;;;3.50;;
14599;SDS011;7386;45.586;12.854;2023-04-01T00:23:01;4.40;;;3.53;;
14599;SDS011;7386;45.586;12.854;2023-04-01T00:25:29;5.13;;;3.30;;
14599;SDS011;7386;45.586;12.854;2023-04-01T00:27:58;3.87;;;3.40;;
14599;SDS011;7386;45.586;12.854;2023-04-01T00:30:27;5.43;;;3.73;;
14599;SDS011;7386;45.586;12.854;2023-04-01T00:32:57;4.67;;;3.50;;
14599;SDS011;7386;45.586;12.854;2023-04-01T00:35:25;6.63;;;3.47;;
14599;SDS011;7386;45.586;12.854;2023-04-01T00:37:54;3.30;;;3.00;;
14599;SDS011;7386;45.586;12.854;2023-04-01T00:40:25;4.47;;;2.93;;
14599;SDS011;7386;45.586;12.854;2023-04-01T00:42:54;3.70;;;3.00;;
14599;SDS011;7386;45.586;12.854;2023-04-01T00:45:27;4.63;;;3.27;;
14599;SDS011;7386;45.586;12.854;2023-04-01T00:47:59;3.57;;;3.23;;
14599;SDS011;7386;45.586;12.854;2023-04-01T00:50:28;5.43;;;3.67;;
14599;SDS011;7386;45.586;12.854;2023-04-01T00:52:57;4.43;;;3.30;;
14599;SDS011;7386;45.586;12.854;2023-04-01T00:55:26;4.43;;;3.47;;
14599;SDS011;7386;45.586;12.854;2023-04-01T00:57:55;4.57;;;3.70;;
14599;SDS011;7386;45.586;12.854;2023-04-01T01:00:25;4.63;;;3.80;;
14599;SDS011;7386;45.586;12.854;2023-04-01T01:02:54;4.00;;;3.47;;
14599;SDS011;7386;45.586;12.854;2023-04-01T01:05:26;5.77;;;3.87;;
14599;SDS011;7386;45.586;12.854;2023-04-01T01:08:08;4.47;;;3.77;;
14599;SDS011;7386;45.586;12.854;2023-04-01T01:10:41;5.93;;;4.60;;
14599;SDS011;7386;45.586;12.854;2023-04-01T01:13:15;5.60;;;4.50;;
14599;SDS011;7386;45.586;12.854;2023-04-01T01:15:45;6.73;;;4.67;;
14599;SDS011;7386;45.586;12.854;2023-04-01T01:18:16;6.77;;;5.10;;
14599;SDS011;7386;45.586;12.854;2023-04-01T01:23:58;7.20;;;5.30;;
14599;SDS011;7386;45.586;12.854;2023-04-01T01:26:35;6.20;;;4.80;;
14599;SDS011;7386;45.586;12.854;2023-04-01T01:29:07;5.63;;;4.40;;
14599;SDS011;7386;45.586;12.854;2023-04-01T01:31:41;5.63;;;4.47;;
14599;SDS011;7386;45.586;12.854;2023-04-01T01:34:14;6.87;;;4.43;;
14599;SDS011;7386;45.586;12.854;2023-04-01T01:36:46;5.00;;;3.67;;
14599;SDS011;7386;45.586;12.854;2023-04-01T01:39:16;4.43;;;3.90;;
14599;SDS011;7386;45.586;12.854;2023-04-01T01:41:45;6.13;;;4.13;;
14599;SDS011;7386;45.586;12.854;2023-04-01T01:44:15;4.70;;;4.10;;
14599;SDS011;7386;45.586;12.854;2023-04-01T01:46:44;4.80;;;3.80;;
14599;SDS011;7386;45.586;12.854;2023-04-01T01:49:13;4.60;;;3.43;;
14599;SDS011;7386;45.586;12.854;2023-04-01T01:51:42;4.53;;;3.93;;
14599;SDS011;7386;45.586;12.854;2023-04-01T01:54:13;3.90;;;3.50;;
14599;SDS011;7386;45.586;12.854;2023-04-01T01:56:42;4.30;;;3.43;;
14599;SDS011;7386;45.586;12.854;2023-04-01T01:59:12;4.63;;;3.47;;
14599;SDS011;7386;45.586;12.854;2023-04-01T02:01:43;4.93;;;3.50;;
14599;SDS011;7386;45.586;12.854;2023-04-01T02:04:13;3.90;;;3.50;;
14599;SDS011;7386;45.586;12.854;2023-04-01T02:06:43;4.67;;;3.73;;
14599;SDS011;7386;45.586;12.854;2023-04-01T02:09:14;4.90;;;3.40;;
14599;SDS011;7386;45.586;12.854;2023-04-01T02:11:44;3.87;;;3.23;;
14599;SDS011;7386;45.586;12.854;2023-04-01T02:14:14;4.37;;;3.20;;
14599;SDS011;7386;45.586;12.854;2023-04-01T02:16:44;3.87;;;3.20;;
14599;SDS011;7386;45.586;12.854;2023-04-01T02:19:14;3.97;;;3.10;;
14599;SDS011;7386;45.586;12.854;2023-04-01T02:21:49;3.57;;;3.17;;
14599;SDS011;7386;45.586;12.854;2023-04-01T02:24:20;3.63;;;3.17;;
14599;SDS011;7386;45.586;12.854;2023-04-01T02:26:50;5.07;;;3.10;;
14599;SDS011;7386;45.586;12.854;2023-04-01T02:29:19;4.23;;;3.47;;
14599;SDS011;7386;45.586;12.854;2023-04-01T02:31:48;5.47;;;4.00;;
14599;SDS011;7386;45.586;12.854;2023-04-01T02:34:17;4.67;;;3.90;;
14599;SDS011;7386;45.586;12.854;2023-04-01T02:36:46;5.57;;;3.93;;
14599;SDS011;7386;45.586;12.854;2023-04-01T02:39:15;6.07;;;4.23;;
14599;SDS011;7386;45.586;12.854;2023-04-01T02:41:45;6.20;;;4.20;;
14599;SDS011;7386;45.586;12.854;2023-04-01T02:44:14;5.60;;;4.17;;
14599;SDS011;7386;45.586;12.854;2023-04-01T02:46:43;5.37;;;4.40;;
14599;SDS011;7386;45.586;12.854;2023-04-01T02:49:12;4.77;;;4.23;;
14599;SDS011;7386;45.586;12.854;2023-04-01T02:51:40;5.53;;;4.43;;
14599;SDS011;7386;45.586;12.854;2023-04-01T02:54:09;5.70;;;4.77;;
14599;SDS011;7386;45.586;12.854;2023-04-01T02:56:37;5.43;;;4.70;;
14599;SDS011;7386;45.586;12.854;2023-04-01T02:59:07;6.53;;;4.67;;
14599;SDS011;7386;45.586;12.854;2023-04-01T03:01:36;5.30;;;4.43;;
14599;SDS011;7386;45.586;12.854;2023-04-01T03:04:04;5.53;;;4.70;;
14599;SDS011;7386;45.586;12.854;2023-04-01T03:06:33;4.77;;;4.27;;
14599;SDS011;7386;45.586;12.854;2023-04-01T03:09:02;5.07;;;4.40;;
14599;SDS011;7386;45.586;12.854;2023-04-01T03:11:30;6.37;;;5.00;;
14599;SDS011;7386;45.586;12.854;2023-04-01T03:13:59;5.30;;;4.77;;
14599;SDS011;7386;45.586;12.854;2023-04-01T03:16:29;6.10;;;4.83;;
14599;SDS011;7386;45.586;12.854;2023-04-01T03:18:57;6.77;;;4.80;;
14599;SDS011;7386;45.586;12.854;2023-04-01T03:21:28;5.43;;;4.73;;
14599;SDS011;7386;45.586;12.854;2023-04-01T03:23:56;5.53;;;4.70;;
14599;SDS011;7386;45.586;12.854;2023-04-01T03:26:25;5.77;;;5.00;;
14599;SDS011;7386;45.586;12.854;2023-04-01T03:28:55;5.40;;;4.60;;
14599;SDS011;7386;45.586;12.854;2023-04-01T03:31:23;6.67;;;4.50;;
14599;SDS011;7386;45.586;12.854;2023-04-01T03:33:53;6.20;;;4.83;;
14599;SDS011;7386;45.586;12.854;2023-04-01T03:36:22;5.53;;;4.93;;
14599;SDS011;7386;45.586;12.854;2023-04-01T03:38:51;5.90;;;5.07;;
14599;SDS011;7386;45.586;12.854;2023-04-01T03:41:19;6.77;;;4.80;;
14599;SDS011;7386;45.586;12.854;2023-04-01T03:43:48;5.50;;;4.90;;
14599;SDS011;7386;45.586;12.854;2023-04-01T03:46:17;7.87;;;4.97;;
14599;SDS011;7386;45.586;12.854;2023-04-01T03:48:45;6.23;;;5.00;;
14599;SDS011;7386;45.586;12.854;2023-04-01T03:51:15;6.17;;;5.10;;
14599;SDS011;7386;45.586;12.854;2023-04-01T03:53:44;6.43;;;5.60;;
14599;SDS011;7386;45.586;12.854;2023-04-01T03:56:12;6.90;;;5.53;;
14599;SDS011;7386;45.586;12.854;2023-04-01T03:58:41;7.47;;;5.57;;
14599;SDS011;7386;45.586;12.854;2023-04-01T04:01:13;6.67;;;5.90;;
14599;SDS011;7386;45.586;12.854;2023-04-01T04:03:42;7.43;;;6.10;;
14599;SDS011;7386;45.586;12.854;2023-04-01T04:06:12;9.13;;;6.53;;
14599;SDS011;7386;45.586;12.854;2023-04-01T04:08:42;8.00;;;6.87;;
14599;SDS011;7386;45.586;12.854;2023-04-01T04:11:11;9.20;;;7.50;;
14599;SDS011;7386;45.586;12.854;2023-04-01T04:13:40;10.33;;;8.60;;
14599;SDS011;7386;45.586;12.854;2023-04-01T04:16:09;10.83;;;8.30;;
14599;SDS011;7386;45.586;12.854;2023-04-01T04:18:38;11.87;;;8.20;;
14599;SDS011;7386;45.586;12.854;2023-04-01T04:21:06;10.13;;;8.17;;
14599;SDS011;7386;45.586;12.854;2023-04-01T04:23:35;12.27;;;8.30;;
14599;SDS011;7386;45.586;12.854;2023-04-01T04:26:05;10.63;;;8.40;;
14599;SDS011;7386;45.586;12.854;2023-04-01T04:28:34;12.60;;;9.77;;
14599;SDS011;7386;45.586;12.854;2023-04-01T04:31:02;12.03;;;9.27;;
14599;SDS011;7386;45.586;12.854;2023-04-01T04:33:33;9.83;;;8.60;;
14599;SDS011;7386;45.586;12.854;2023-04-01T04:36:02;13.23;;;9.83;;
14599;SDS011;7386;45.586;12.854;2023-04-01T04:38:31;13.17;;;9.27;;
14599;SDS011;7386;45.586;12.854;2023-04-01T04:40:59;14.13;;;10.47;;
14599;SDS011;7386;45.586;12.854;2023-04-01T04:43:29;13.37;;;10.37;;
14599;SDS011;7386;45.586;12.854;2023-04-01T04:45:58;13.00;;;9.40;;
14599;SDS011;7386;45.586;12.854;2023-04-01T04:48:26;14.27;;;9.87;;
14599;SDS011;7386;45.586;12.854;2023-04-01T04:50:55;11.83;;;8.97;;
14599;SDS011;7386;45.586;12.854;2023-04-01T04:53:23;12.43;;;10.33;;
14599;SDS011;7386;45.586;12.854;2023-04-01T04:55:52;15.87;;;12.13;;
14599;SDS011;7386;45.586;12.854;2023-04-01T04:58:21;15.10;;;11.67;;
14599;SDS011;7386;45.586;12.854;2023-04-01T05:00:51;13.90;;;10.63;;
14599;SDS011;7386;45.586;12.854;2023-04-01T05:03:19;14.63;;;11.33;;
14599;SDS011;7386;45.586;12.854;2023-04-01T05:05:49;16.33;;;11.77;;
14599;SDS011;7386;45.586;12.854;2023-04-01T05:08:17;15.27;;;11.80;;
14599;SDS011;7386;45.586;12.854;2023-04-01T05:10:46;17.67;;;12.43;;
14599;SDS011;7386;45.586;12.854;2023-04-01T05:13:14;15.30;;;11.97;;
14599;SDS011;7386;45.586;12.854;2023-04-01T05:15:43;14.97;;;11.27;;
14599;SDS011;7386;45.586;12.854;2023-04-01T05:18:13;15.67;;;12.17;;
14599;SDS011;7386;45.586;12.854;2023-04-01T05:20:45;16.87;;;12.40;;
14599;SDS011;7386;45.586;12.854;2023-04-01T05:23:14;15.33;;;11.93;;
14599;SDS011;7386;45.586;12.854;2023-04-01T05:25:42;17.20;;;13.53;;
14599;SDS011;7386;45.586;12.854;2023-04-01T05:28:11;15.13;;;11.93;;
14599;SDS011;7386;45.586;12.854;2023-04-01T05:30:40;19.10;;;14.03;;
14599;SDS011;7386;45.586;12.854;2023-04-01T05:33:09;17.13;;;13.33;;
14599;SDS011;7386;45.586;12.854;2023-04-01T05:35:39;17.40;;;13.73;;
14599;SDS011;7386;45.586;12.854;2023-04-01T05:38:08;17.50;;;13.57;;
14599;SDS011;7386;45.586;12.854;2023-04-01T05:40:36;17.57;;;12.83;;
14599;SDS011;7386;45.586;12.854;2023-04-01T05:43:05;17.17;;;13.40;;
14599;SDS011;7386;45.586;12.854;2023-04-01T05:45:33;17.53;;;13.43;;
14599;SDS011;7386;45.586;12.854;2023-04-01T05:48:02;19.17;;;14.53;;
14599;SDS011;7386;45.586;12.854;2023-04-01T05:50:31;18.90;;;14.67;;
14599;SDS011;7386;45.586;12.854;2023-04-01T05:53:01;18.30;;;14.23;;
14599;SDS011;7386;45.586;12.854;2023-04-01T05:55:29;17.13;;;13.07;;
14599;SDS011;7386;45.586;12.854;2023-04-01T05:57:58;19.03;;;14.83;;
14599;SDS011;7386;45.586;12.854;2023-04-01T06:00:27;19.13;;;14.07;;
14599;SDS011;7386;45.586;12.854;2023-04-01T06:02:57;17.80;;;13.63;;
14599;SDS011;7386;45.586;12.854;2023-04-01T06:05:27;17.53;;;13.30;;
14599;SDS011;7386;45.586;12.854;2023-04-01T06:07:58;17.40;;;13.43;;
14599;SDS011;7386;45.586;12.854;2023-04-01T06:10:32;16.77;;;12.97;;
14599;SDS011;7386;45.586;12.854;2023-04-01T06:13:05;15.67;;;10.97;;
14599;SDS011;7386;45.586;12.854;2023-04-01T06:15:36;15.17;;;11.87;;
14599;SDS011;7386;45.586;12.854;2023-04-01T06:18:14;15.93;;;12.37;;
14599;SDS011;7386;45.586;12.854;2023-04-01T06:20:47;15.63;;;11.70;;
14599;SDS011;7386;45.586;12.854;2023-04-01T06:23:30;14.47;;;11.87;;
14599;SDS011;7386;45.586;12.854;2023-04-01T06:26:08;14.20;;;11.53;;
14599;SDS011;7386;45.586;12.854;2023-04-01T06:28:46;13.23;;;11.00;;
14599;SDS011;7386;45.586;12.854;2023-04-01T06:31:21;14.10;;;10.77;;
14599;SDS011;7386;45.586;12.854;2023-04-01T06:34:05;15.57;;;11.53;;
14599;SDS011;7386;45.586;12.854;2023-04-01T06:36:50;13.00;;;11.20;;
14599;SDS011;7386;45.586;12.854;2023-04-01T06:39:32;13.23;;;10.83;;
14599;SDS011;7386;45.586;12.854;2023-04-01T06:42:09;17.10;;;12.60;;
14599;SDS011;7386;45.586;12.854;2023-04-01T06:44:46;14.20;;;11.03;;
14599;SDS011;7386;45.586;12.854;2023-04-01T06:47:27;10.07;;;8.33;;
14599;SDS011;7386;45.586;12.854;2023-04-01T06:49:59;14.30;;;11.17;;
14599;SDS011;7386;45.586;12.854;2023-04-01T06:52:34;15.40;;;12.30;;
14599;SDS011;7386;45.586;12.854;2023-04-01T06:55:15;14.80;;;9.77;;
14599;SDS011;7386;45.586;12.854;2023-04-01T06:57:49;15.60;;;10.17;;
14599;SDS011;7386;45.586;12.854;2023-04-01T07:00:24;17.00;;;10.87;;
14599;SDS011;7386;45.586;12.854;2023-04-01T07:02:55;10.67;;;8.60;;
14599;SDS011;7386;45.586;12.854;2023-04-01T07:05:32;10.30;;;7.93;;
14599;SDS011;7386;45.586;12.854;2023-04-01T07:08:02;10.60;;;9.33;;
14599;SDS011;7386;45.586;12.854;2023-04-01T07:10:33;10.93;;;9.00;;
14599;SDS011;7386;45.586;12.854;2023-04-01T07:13:05;9.40;;;7.90;;
14599;SDS011;7386;45.586;12.854;2023-04-01T07:15:36;10.87;;;8.90;;
14599;SDS011;7386;45.586;12.854;2023-04-01T07:18:07;11.43;;;9.57;;
14599;SDS011;7386;45.586;12.854;2023-04-01T07:20:37;8.77;;;7.27;;
14599;SDS011;7386;45.586;12.854;2023-04-01T07:23:08;9.70;;;6.23;;
14599;SDS011;7386;45.586;12.854;2023-04-01T07:25:39;8.30;;;6.80;;
14599;SDS011;7386;45.586;12.854;2023-04-01T07:28:13;7.67;;;6.23;;
14599;SDS011;7386;45.586;12.854;2023-04-01T07:30:44;6.07;;;5.10;;
14599;SDS011;7386;45.586;12.854;2023-04-01T07:33:19;7.60;;;6.10;;
14599;SDS011;7386;45.586;12.854;2023-04-01T07:35:50;6.77;;;5.33;;
14599;SDS011;7386;45.586;12.854;2023-04-01T07:38:22;7.03;;;4.97;;
14599;SDS011;7386;45.586;12.854;2023-04-01T07:40:53;6.63;;;5.10;;
14599;SDS011;7386;45.586;12.854;2023-04-01T07:46:11;6.03;;;4.00;;
14599;SDS011;7386;45.586;12.854;2023-04-01T07:48:44;6.43;;;4.87;;
14599;SDS011;7386;45.586;12.854;2023-04-01T07:51:17;6.60;;;5.17;;
14599;SDS011;7386;45.586;12.854;2023-04-01T07:53:48;4.37;;;3.87;;
14599;SDS011;7386;45.586;12.854;2023-04-01T07:56:20;4.33;;;3.73;;
14599;SDS011;7386;45.586;12.854;2023-04-01T07:58:53;5.10;;;3.70;;
14599;SDS011;7386;45.586;12.854;2023-04-01T08:01:29;3.60;;;3.17;;
14599;SDS011;7386;45.586;12.854;2023-04-01T08:04:05;3.03;;;2.67;;
14599;SDS011;7386;45.586;12.854;2023-04-01T08:06:36;3.53;;;2.60;;
14599;SDS011;7386;45.586;12.854;2023-04-01T08:09:08;2.60;;;2.40;;
14599;SDS011;7386;45.586;12.854;2023-04-01T08:11:41;3.13;;;2.50;;
14599;SDS011;7386;45.586;12.854;2023-04-01T08:14:16;3.03;;;2.67;;
14599;SDS011;7386;45.586;12.854;2023-04-01T08:16:50;4.67;;;3.30;;
14599;SDS011;7386;45.586;12.854;2023-04-01T08:19:25;2.40;;;2.00;;
14599;SDS011;7386;45.586;12.854;2023-04-01T08:21:58;3.00;;;2.20;;
14599;SDS011;7386;45.586;12.854;2023-04-01T08:24:33;2.67;;;2.47;;
14599;SDS011;7386;45.586;12.854;2023-04-01T08:27:14;3.13;;;2.40;;
14599;SDS011;7386;45.586;12.854;2023-04-01T08:29:46;3.73;;;2.73;;
14599;SDS011;7386;45.586;12.854;2023-04-01T08:32:18;4.17;;;3.13;;
14599;SDS011;7386;45.586;12.854;2023-04-01T08:34:50;3.67;;;3.10;;
14599;SDS011;7386;45.586;12.854;2023-04-01T08:37:22;3.20;;;2.90;;
14599;SDS011;7386;45.586;12.854;2023-04-01T08:39:53;4.67;;;3.30;;
14599;SDS011;7386;45.586;12.854;2023-04-01T08:42:31;6.20;;;3.20;;
14599;SDS011;7386;45.586;12.854;2023-04-01T08:51:13;6.43;;;3.27;;
14599;SDS011;7386;45.586;12.854;2023-04-01T08:53:50;4.43;;;2.93;;
14599;SDS011;7386;45.586;12.854;2023-04-01T08:56:26;5.40;;;3.20;;
14599;SDS011;7386;45.586;12.854;2023-04-01T08:59:02;5.83;;;2.93;;
14599;SDS011;7386;45.586;12.854;2023-04-01T09:01:40;4.10;;;3.50;;
14599;SDS011;7386;45.586;12.854;2023-04-01T09:04:20;7.27;;;3.03;;
14599;SDS011;7386;45.586;12.854;2023-04-01T09:06:54;3.93;;;2.80;;
14599;SDS011;7386;45.586;12.854;2023-04-01T09:09:41;4.00;;;3.13;;
14599;SDS011;7386;45.586;12.854;2023-04-01T09:12:19;5.27;;;2.90;;
14599;SDS011;7386;45.586;12.854;2023-04-01T09:14:57;3.13;;;2.83;;
14599;SDS011;7386;45.586;12.854;2023-04-01T09:17:33;3.90;;;3.07;;
14599;SDS011;7386;45.586;12.854;2023-04-01T09:22:52;3.33;;;2.57;;
14599;SDS011;7386;45.586;12.854;2023-04-01T09:25:30;5.33;;;2.63;;
14599;SDS011;7386;45.586;12.854;2023-04-01T09:28:07;3.07;;;2.60;;
14599;SDS011;7386;45.586;12.854;2023-04-01T09:30:41;3.17;;;2.30;;
14599;SDS011;7386;45.586;12.854;2023-04-01T09:33:27;4.13;;;2.40;;
14599;SDS011;7386;45.586;12.854;2023-04-01T09:36:03;4.50;;;2.33;;
14599;SDS011;7386;45.586;12.854;2023-04-01T09:38:36;4.00;;;2.80;;
14599;SDS011;7386;45.586;12.854;2023-04-01T09:41:07;2.87;;;2.20;;
14599;SDS011;7386;45.586;12.854;2023-04-01T09:43:48;3.77;;;2.63;;
14599;SDS011;7386;45.586;12.854;2023-04-01T09:46:26;4.00;;;3.00;;
14599;SDS011;7386;45.586;12.854;2023-04-01T09:51:46;5.13;;;3.40;;
14599;SDS011;7386;45.586;12.854;2023-04-01T09:54:24;3.77;;;2.90;;
14599;SDS011;7386;45.586;12.854;2023-04-01T09:59:45;3.77;;;3.20;;
14599;SDS011;7386;45.586;12.854;2023-04-01T10:08:09;4.17;;;3.30;;
14599;SDS011;7386;45.586;12.854;2023-04-01T10:10:48;3.47;;;2.73;;
14599;SDS011;7386;45.586;12.854;2023-04-01T10:13:35;5.30;;;3.80;;
14599;SDS011;7386;45.586;12.854;2023-04-01T10:19:02;4.20;;;3.00;;
14599;SDS011;7386;45.586;12.854;2023-04-01T10:21:45;4.07;;;3.20;;
14599;SDS011;7386;45.586;12.854;2023-04-01T10:24:19;3.73;;;2.57;;
14599;SDS011;7386;45.586;12.854;2023-04-01T10:33:06;4.60;;;3.37;;
14599;SDS011;7386;45.586;12.854;2023-04-01T10:38:36;3.03;;;2.50;;
14599;SDS011;7386;45.586;12.854;2023-04-01T10:41:17;3.77;;;2.10;;
14599;SDS011;7386;45.586;12.854;2023-04-01T10:49:53;5.22;;;2.08;;
14599;SDS011;7386;45.586;12.854;2023-04-01T10:58:17;3.42;;;2.20;;
14599;SDS011;7386;45.586;12.854;2023-04-01T11:03:46;3.88;;;1.90;;
14599;SDS011;7386;45.586;12.854;2023-04-01T11:12:11;3.33;;;2.35;;
14599;SDS011;7386;45.586;12.854;2023-04-01T11:14:59;5.65;;;2.83;;
14599;SDS011;7386;45.586;12.854;2023-04-01T11:17:40;5.47;;;3.38;;
14599;SDS011;7386;45.586;12.854;2023-04-01T11:20:28;6.60;;;3.03;;
14599;SDS011;7386;45.586;12.854;2023-04-01T11:23:05;3.55;;;2.50;;
14599;SDS011;7386;45.586;12.854;2023-04-01T11:25:46;4.72;;;2.05;;
14599;SDS011;7386;45.586;12.854;2023-04-01T11:28:27;4.20;;;2.00;;
14599;SDS011;7386;45.586;12.854;2023-04-01T11:31:10;2.63;;;1.90;;
14599;SDS011;7386;45.586;12.854;2023-04-01T11:33:43;3.15;;;1.70;;
14599;SDS011;7386;45.586;12.854;2023-04-01T11:36:15;2.67;;;1.80;;
14599;SDS011;7386;45.586;12.854;2023-04-01T11:41:32;5.30;;;2.80;;
14599;SDS011;7386;45.586;12.854;2023-04-01T11:46:59;7.78;;;2.72;;
14599;SDS011;7386;45.586;12.854;2023-04-01T11:52:24;6.00;;;2.90;;
14599;SDS011;7386;45.586;12.854;2023-04-01T11:58:01;4.68;;;2.70;;
14599;SDS011;7386;45.586;12.854;2023-04-01T12:00:42;3.10;;;2.22;;
14599;SDS011;7386;45.586;12.854;2023-04-01T12:03:26;4.32;;;2.40;;
14599;SDS011;7386;45.586;12.854;2023-04-01T12:05:58;3.95;;;2.67;;
14599;SDS011;7386;45.586;12.854;2023-04-01T12:08:31;3.70;;;2.20;;
14599;SDS011;7386;45.586;12.854;2023-04-01T12:11:05;2.42;;;1.90;;
14599;SDS011;7386;45.586;12.854;2023-04-01T12:13:42;2.70;;;2.13;;
14599;SDS011;7386;45.586;12.854;2023-04-01T12:16:19;4.82;;;2.63;;
14599;SDS011;7386;45.586;12.854;2023-04-01T12:18:54;3.95;;;2.58;;
14599;SDS011;7386;45.586;12.854;2023-04-01T12:21:25;3.13;;;2.20;;
14599;SDS011;7386;45.586;12.854;2023-04-01T12:26:52;2.50;;;2.10;;
14599;SDS011;7386;45.586;12.854;2023-04-01T12:29:33;3.20;;;1.90;;
14599;SDS011;7386;45.586;12.854;2023-04-01T12:32:06;3.67;;;2.42;;
14599;SDS011;7386;45.586;12.854;2023-04-01T12:34:45;2.17;;;1.98;;
14599;SDS011;7386;45.586;12.854;2023-04-01T12:37:20;4.07;;;2.42;;
14599;SDS011;7386;45.586;12.854;2023-04-01T12:40:01;3.25;;;2.40;;
14599;SDS011;7386;45.586;12.854;2023-04-01T12:42:44;2.35;;;2.00;;
14599;SDS011;7386;45.586;12.854;2023-04-01T12:45:23;5.20;;;2.58;;
14599;SDS011;7386;45.586;12.854;2023-04-01T12:48:03;2.83;;;2.08;;
14599;SDS011;7386;45.586;12.854;2023-04-01T12:50:39;3.53;;;2.00;;
14599;SDS011;7386;45.586;12.854;2023-04-01T12:53:14;5.10;;;2.87;;
14599;SDS011;7386;45.586;12.854;2023-04-01T12:55:46;3.20;;;2.20;;
14599;SDS011;7386;45.586;12.854;2023-04-01T13:04:04;3.45;;;1.90;;
14599;SDS011;7386;45.586;12.854;2023-04-01T13:06:47;3.75;;;1.80;;
14599;SDS011;7386;45.586;12.854;2023-04-01T13:09:24;2.00;;;1.85;;
14599;SDS011;7386;45.586;12.854;2023-04-01T13:11:59;3.00;;;1.90;;
14599;SDS011;7386;45.586;12.854;2023-04-01T13:17:36;2.10;;;1.90;;
14599;SDS011;7386;45.586;12.854;2023-04-01T13:20:13;2.40;;;1.80;;
14599;SDS011;7386;45.586;12.854;2023-04-01T13:22:48;2.30;;;1.70;;
14599;SDS011;7386;45.586;12.854;2023-04-01T13:25:21;2.77;;;1.70;;
14599;SDS011;7386;45.586;12.854;2023-04-01T13:27:55;2.20;;;1.60;;
14599;SDS011;7386;45.586;12.854;2023-04-01T13:30:25;3.30;;;1.70;;
14599;SDS011;7386;45.586;12.854;2023-04-01T13:32:58;2.97;;;1.80;;
14599;SDS011;7386;45.586;12.854;2023-04-01T13:35:30;1.50;;;1.40;;
14599;SDS011;7386;45.586;12.854;2023-04-01T13:38:08;1.95;;;1.50;;
14599;SDS011;7386;45.586;12.854;2023-04-01T13:40:42;1.65;;;1.30;;
14599;SDS011;7386;45.586;12.854;2023-04-01T13:43:29;3.10;;;1.60;;
14599;SDS011;7386;45.586;12.854;2023-04-01T13:46:08;3.85;;;1.85;;
14599;SDS011;7386;45.586;12.854;2023-04-01T13:48:45;1.70;;;1.60;;
14599;SDS011;7386;45.586;12.854;2023-04-01T13:51:26;2.17;;;1.50;;
14599;SDS011;7386;45.586;12.854;2023-04-01T13:54:02;1.40;;;1.23;;
14599;SDS011;7386;45.586;12.854;2023-04-01T13:56:37;2.67;;;1.73;;
14599;SDS011;7386;45.586;12.854;2023-04-01T14:01:56;2.08;;;1.58;;
14599;SDS011;7386;45.586;12.854;2023-04-01T14:04:30;1.52;;;1.33;;
14599;SDS011;7386;45.586;12.854;2023-04-01T14:07:08;2.65;;;1.58;;
14599;SDS011;7386;45.586;12.854;2023-04-01T14:10:01;2.00;;;1.65;;
14599;SDS011;7386;45.586;12.854;2023-04-01T14:12:35;5.17;;;1.67;;
14599;SDS011;7386;45.586;12.854;2023-04-01T14:15:11;3.13;;;1.73;;
14599;SDS011;7386;45.586;12.854;2023-04-01T14:17:50;1.45;;;1.40;;
14599;SDS011;7386;45.586;12.854;2023-04-01T14:20:27;1.63;;;1.50;;
14599;SDS011;7386;45.586;12.854;2023-04-01T14:23:07;3.97;;;2.10;;
14599;SDS011;7386;45.586;12.854;2023-04-01T14:25:50;2.17;;;1.98;;
14599;SDS011;7386;45.586;12.854;2023-04-01T14:28:23;2.50;;;2.10;;
14599;SDS011;7386;45.586;12.854;2023-04-01T14:30:57;2.67;;;2.00;;
14599;SDS011;7386;45.586;12.854;2023-04-01T14:33:34;3.05;;;2.00;;
14599;SDS011;7386;45.586;12.854;2023-04-01T14:38:52;2.00;;;1.80;;
14599;SDS011;7386;45.586;12.854;2023-04-01T14:41:28;1.75;;;1.65;;
14599;SDS011;7386;45.586;12.854;2023-04-01T14:44:03;2.42;;;2.00;;
14599;SDS011;7386;45.586;12.854;2023-04-01T14:49:30;2.85;;;2.08;;
14599;SDS011;7386;45.586;12.854;2023-04-01T14:52:04;3.88;;;2.50;;
14599;SDS011;7386;45.586;12.854;2023-04-01T14:54:35;3.50;;;2.55;;
14599;SDS011;7386;45.586;12.854;2023-04-01T14:57:09;2.13;;;1.90;;
14599;SDS011;7386;45.586;12.854;2023-04-01T14:59:39;4.05;;;1.98;;
14599;SDS011;7386;45.586;12.854;2023-04-01T15:02:14;2.40;;;2.03;;
14599;SDS011;7386;45.586;12.854;2023-04-01T15:04:53;2.25;;;2.05;;
14599;SDS011;7386;45.586;12.854;2023-04-01T15:07:33;2.88;;;1.70;;
14599;SDS011;7386;45.586;12.854;2023-04-01T15:10:06;2.65;;;1.80;;
14599;SDS011;7386;45.586;12.854;2023-04-01T15:12:42;2.35;;;2.15;;
14599;SDS011;7386;45.586;12.854;2023-04-01T15:15:21;2.53;;;1.92;;
14599;SDS011;7386;45.586;12.854;2023-04-01T15:17:58;2.60;;;1.80;;
14599;SDS011;7386;45.586;12.854;2023-04-01T15:20:32;2.03;;;1.80;;
14599;SDS011;7386;45.586;12.854;2023-04-01T15:23:05;1.70;;;1.60;;
14599;SDS011;7386;45.586;12.854;2023-04-01T15:25:43;2.08;;;1.90;;
14599;SDS011;7386;45.586;12.854;2023-04-01T15:28:17;2.35;;;1.88;;
14599;SDS011;7386;45.586;12.854;2023-04-01T15:30:49;3.95;;;1.83;;
14599;SDS011;7386;45.586;12.854;2023-04-01T15:36:04;2.17;;;1.98;;
14599;SDS011;7386;45.586;12.854;2023-04-01T15:38:36;3.03;;;2.17;;
14599;SDS011;7386;45.586;12.854;2023-04-01T15:41:14;2.85;;;2.08;;
14599;SDS011;7386;45.586;12.854;2023-04-01T15:43:45;3.45;;;2.10;;
14599;SDS011;7386;45.586;12.854;2023-04-01T15:46:26;2.55;;;1.85;;
14599;SDS011;7386;45.586;12.854;2023-04-01T15:49:02;2.22;;;1.67;;
14599;SDS011;7386;45.586;12.854;2023-04-01T15:51:41;2.55;;;1.60;;
14599;SDS011;7386;45.586;12.854;2023-04-01T15:59:57;2.33;;;2.10;;
14599;SDS011;7386;45.586;12.854;2023-04-01T16:02:31;4.20;;;2.20;;
14599;SDS011;7386;45.586;12.854;2023-04-01T16:05:02;2.70;;;2.05;;
14599;SDS011;7386;45.586;12.854;2023-04-01T16:10:25;3.33;;;1.80;;
14599;SDS011;7386;45.586;12.854;2023-04-01T16:13:03;2.20;;;1.95;;
14599;SDS011;7386;45.586;12.854;2023-04-01T16:15:37;2.08;;;1.95;;
14599;SDS011;7386;45.586;12.854;2023-04-01T16:20:54;2.35;;;1.83;;
14599;SDS011;7386;45.586;12.854;2023-04-01T16:23:24;3.08;;;1.90;;
14599;SDS011;7386;45.586;12.854;2023-04-01T16:25:57;1.90;;;1.77;;
14599;SDS011;7386;45.586;12.854;2023-04-01T16:28:30;4.00;;;2.25;;
14599;SDS011;7386;45.586;12.854;2023-04-01T16:31:03;2.85;;;2.10;;
14599;SDS011;7386;45.586;12.854;2023-04-01T16:33:38;2.10;;;1.90;;
14599;SDS011;7386;45.586;12.854;2023-04-01T16:36:10;3.08;;;1.83;;
14599;SDS011;7386;45.586;12.854;2023-04-01T16:38:40;2.25;;;2.05;;
14599;SDS011;7386;45.586;12.854;2023-04-01T16:41:11;2.33;;;2.10;;
14599;SDS011;7386;45.586;12.854;2023-04-01T16:43:44;3.47;;;2.08;;
14599;SDS011;7386;45.586;12.854;2023-04-01T16:46:26;2.33;;;2.00;;
14599;SDS011;7386;45.586;12.854;2023-04-01T16:48:58;3.75;;;2.05;;
14599;SDS011;7386;45.586;12.854;2023-04-01T16:51:32;2.92;;;2.10;;
14599;SDS011;7386;45.586;12.854;2023-04-01T16:54:04;4.70;;;2.20;;
14599;SDS011;7386;45.586;12.854;2023-04-01T16:56:38;4.07;;;2.20;;
14599;SDS011;7386;45.586;12.854;2023-04-01T16:59:07;3.85;;;3.08;;
14599;SDS011;7386;45.586;12.854;2023-04-01T17:01:44;4.57;;;3.42;;